White Oak, West Virginia
Current Conditions -  °F | °C
As of 8:51 AM on Thursday 23 Oct 2014 (Local Time) from KBKW Reporting Station
Overcast Overcast  
Wind Chill: 37°   Ceiling: 700
Heat Index: 42°   Visibility: 10mi
Dew Point: 39°   Wind: 8mph
Humidity: 89%   Direction: 340°NNW
Pressure: 30.17"   Gusts: NA
Location:  37.69°N, 81.07°W
Report Text: KBKW 231251Z AUTO 34007KT 10SM OVC007 06/04 A3017 RMK AO2 SLP226 T00560039 TSNO
Loading
Personal Weather Stations






























Interactive Weather Map
Tropical Storm Tracking
New forecast layout! Learn more

10-Day Weather Forecast

Advertisements
Track Severe Weather on mobile